sensor_id;sensor_type;location;lat;lon;timestamp;P1;durP1;ratioP1;P2;durP2;ratioP2
7501;SDS011;3792;47.740;7.606;2023-11-18T00:00:27;3.83;;;2.87;;
7501;SDS011;3792;47.740;7.606;2023-11-18T00:02:54;2.83;;;2.57;;
7501;SDS011;3792;47.740;7.606;2023-11-18T00:05:22;6.70;;;3.27;;
7501;SDS011;3792;47.740;7.606;2023-11-18T00:07:49;4.73;;;2.70;;
7501;SDS011;3792;47.740;7.606;2023-11-18T00:10:16;4.33;;;2.77;;
7501;SDS011;3792;47.740;7.606;2023-11-18T00:12:43;4.53;;;2.90;;
7501;SDS011;3792;47.740;7.606;2023-11-18T00:15:12;4.43;;;2.73;;
7501;SDS011;3792;47.740;7.606;2023-11-18T00:17:39;6.37;;;2.73;;
7501;SDS011;3792;47.740;7.606;2023-11-18T00:20:06;3.20;;;2.47;;
7501;SDS011;3792;47.740;7.606;2023-11-18T00:22:38;9.50;;;5.27;;
7501;SDS011;3792;47.740;7.606;2023-11-18T00:25:06;3.13;;;2.43;;
7501;SDS011;3792;47.740;7.606;2023-11-18T00:27:34;2.63;;;2.00;;
7501;SDS011;3792;47.740;7.606;2023-11-18T00:30:02;15.83;;;7.70;;
7501;SDS011;3792;47.740;7.606;2023-11-18T00:32:33;22.27;;;10.30;;
7501;SDS011;3792;47.740;7.606;2023-11-18T00:35:01;8.00;;;4.20;;
7501;SDS011;3792;47.740;7.606;2023-11-18T00:37:29;10.63;;;4.70;;
7501;SDS011;3792;47.740;7.606;2023-11-18T00:39:58;6.60;;;3.60;;
7501;SDS011;3792;47.740;7.606;2023-11-18T00:42:25;6.07;;;3.70;;
7501;SDS011;3792;47.740;7.606;2023-11-18T00:44:52;6.20;;;3.20;;
7501;SDS011;3792;47.740;7.606;2023-11-18T00:47:20;4.37;;;2.60;;
7501;SDS011;3792;47.740;7.606;2023-11-18T00:49:48;4.93;;;3.30;;
7501;SDS011;3792;47.740;7.606;2023-11-18T00:52:17;3.77;;;2.63;;
7501;SDS011;3792;47.740;7.606;2023-11-18T00:54:44;5.87;;;3.37;;
7501;SDS011;3792;47.740;7.606;2023-11-18T00:57:13;5.13;;;3.53;;
7501;SDS011;3792;47.740;7.606;2023-11-18T00:59:43;4.63;;;3.47;;
7501;SDS011;3792;47.740;7.606;2023-11-18T01:02:10;3.23;;;2.47;;
7501;SDS011;3792;47.740;7.606;2023-11-18T01:04:38;4.93;;;3.53;;
7501;SDS011;3792;47.740;7.606;2023-11-18T01:07:05;2.40;;;2.13;;
7501;SDS011;3792;47.740;7.606;2023-11-18T01:09:33;3.70;;;2.27;;
7501;SDS011;3792;47.740;7.606;2023-11-18T01:12:04;4.10;;;1.80;;
7501;SDS011;3792;47.740;7.606;2023-11-18T01:14:36;1.73;;;1.63;;
7501;SDS011;3792;47.740;7.606;2023-11-18T01:17:04;1.97;;;1.70;;
7501;SDS011;3792;47.740;7.606;2023-11-18T01:19:31;2.90;;;1.53;;
7501;SDS011;3792;47.740;7.606;2023-11-18T01:21:58;2.53;;;1.63;;
7501;SDS011;3792;47.740;7.606;2023-11-18T01:24:25;1.70;;;1.60;;
7501;SDS011;3792;47.740;7.606;2023-11-18T01:26:53;5.37;;;1.60;;
7501;SDS011;3792;47.740;7.606;2023-11-18T01:29:20;1.57;;;1.47;;
7501;SDS011;3792;47.740;7.606;2023-11-18T01:31:50;2.63;;;1.60;;
7501;SDS011;3792;47.740;7.606;2023-11-18T01:34:18;1.97;;;1.20;;
7501;SDS011;3792;47.740;7.606;2023-11-18T01:36:46;1.33;;;1.20;;
7501;SDS011;3792;47.740;7.606;2023-11-18T01:39:14;2.80;;;1.63;;
7501;SDS011;3792;47.740;7.606;2023-11-18T01:41:42;2.90;;;1.57;;
7501;SDS011;3792;47.740;7.606;2023-11-18T01:44:09;1.63;;;1.30;;
7501;SDS011;3792;47.740;7.606;2023-11-18T01:46:38;2.07;;;1.23;;
7501;SDS011;3792;47.740;7.606;2023-11-18T01:49:11;2.90;;;1.50;;
7501;SDS011;3792;47.740;7.606;2023-11-18T01:51:40;2.97;;;1.70;;
7501;SDS011;3792;47.740;7.606;2023-11-18T01:54:07;2.07;;;1.60;;
7501;SDS011;3792;47.740;7.606;2023-11-18T01:56:40;3.23;;;1.70;;
7501;SDS011;3792;47.740;7.606;2023-11-18T01:59:09;2.83;;;1.60;;
7501;SDS011;3792;47.740;7.606;2023-11-18T02:01:43;1.33;;;1.27;;
7501;SDS011;3792;47.740;7.606;2023-11-18T02:04:14;3.07;;;1.50;;
7501;SDS011;3792;47.740;7.606;2023-11-18T02:06:45;2.40;;;1.67;;
7501;SDS011;3792;47.740;7.606;2023-11-18T02:09:14;1.60;;;1.40;;
7501;SDS011;3792;47.740;7.606;2023-11-18T02:11:43;4.00;;;1.60;;
7501;SDS011;3792;47.740;7.606;2023-11-18T02:14:20;3.77;;;1.80;;
7501;SDS011;3792;47.740;7.606;2023-11-18T02:16:50;1.70;;;1.60;;
7501;SDS011;3792;47.740;7.606;2023-11-18T02:19:21;1.70;;;1.60;;
7501;SDS011;3792;47.740;7.606;2023-11-18T02:21:50;2.20;;;1.70;;
7501;SDS011;3792;47.740;7.606;2023-11-18T02:24:25;1.70;;;1.60;;
7501;SDS011;3792;47.740;7.606;2023-11-18T02:26:57;2.60;;;1.50;;
7501;SDS011;3792;47.740;7.606;2023-11-18T02:29:25;1.10;;;1.10;;
7501;SDS011;3792;47.740;7.606;2023-11-18T02:31:56;3.43;;;1.47;;
7501;SDS011;3792;47.740;7.606;2023-11-18T02:34:28;2.53;;;1.60;;
7501;SDS011;3792;47.740;7.606;2023-11-18T02:36:59;1.77;;;1.40;;
7501;SDS011;3792;47.740;7.606;2023-11-18T02:39:32;2.30;;;1.27;;
7501;SDS011;3792;47.740;7.606;2023-11-18T02:42:08;3.40;;;1.20;;
7501;SDS011;3792;47.740;7.606;2023-11-18T02:44:37;2.33;;;1.50;;
7501;SDS011;3792;47.740;7.606;2023-11-18T02:47:05;1.80;;;1.50;;
7501;SDS011;3792;47.740;7.606;2023-11-18T02:49:32;1.70;;;1.23;;
7501;SDS011;3792;47.740;7.606;2023-11-18T02:52:01;1.50;;;1.30;;
7501;SDS011;3792;47.740;7.606;2023-11-18T02:54:30;1.87;;;1.50;;
7501;SDS011;3792;47.740;7.606;2023-11-18T02:56:57;2.03;;;1.50;;
7501;SDS011;3792;47.740;7.606;2023-11-18T02:59:26;2.33;;;1.50;;
7501;SDS011;3792;47.740;7.606;2023-11-18T03:01:55;1.33;;;1.23;;
7501;SDS011;3792;47.740;7.606;2023-11-18T03:04:22;3.87;;;1.47;;
7501;SDS011;3792;47.740;7.606;2023-11-18T03:06:50;2.67;;;2.10;;
7501;SDS011;3792;47.740;7.606;2023-11-18T03:09:17;3.87;;;3.17;;
7501;SDS011;3792;47.740;7.606;2023-11-18T03:11:44;3.70;;;1.77;;
7501;SDS011;3792;47.740;7.606;2023-11-18T03:14:11;1.57;;;1.30;;
7501;SDS011;3792;47.740;7.606;2023-11-18T03:16:39;2.97;;;2.67;;
7501;SDS011;3792;47.740;7.606;2023-11-18T03:19:06;4.53;;;2.50;;
7501;SDS011;3792;47.740;7.606;2023-11-18T03:21:34;2.20;;;1.73;;
7501;SDS011;3792;47.740;7.606;2023-11-18T03:24:04;3.27;;;1.27;;
7501;SDS011;3792;47.740;7.606;2023-11-18T03:26:32;3.07;;;1.93;;
7501;SDS011;3792;47.740;7.606;2023-11-18T03:28:59;2.87;;;1.63;;
7501;SDS011;3792;47.740;7.606;2023-11-18T03:31:26;2.57;;;1.13;;
7501;SDS011;3792;47.740;7.606;2023-11-18T03:33:55;7.00;;;1.63;;
7501;SDS011;3792;47.740;7.606;2023-11-18T03:36:22;2.50;;;1.43;;
7501;SDS011;3792;47.740;7.606;2023-11-18T03:38:49;2.17;;;1.40;;
7501;SDS011;3792;47.740;7.606;2023-11-18T03:41:16;2.83;;;2.00;;
7501;SDS011;3792;47.740;7.606;2023-11-18T03:43:43;2.37;;;1.50;;
7501;SDS011;3792;47.740;7.606;2023-11-18T03:46:13;1.30;;;1.20;;
7501;SDS011;3792;47.740;7.606;2023-11-18T03:48:40;2.80;;;1.70;;
7501;SDS011;3792;47.740;7.606;2023-11-18T03:51:10;1.57;;;1.47;;
7501;SDS011;3792;47.740;7.606;2023-11-18T03:53:37;4.57;;;2.90;;
7501;SDS011;3792;47.740;7.606;2023-11-18T03:56:05;1.30;;;1.30;;
7501;SDS011;3792;47.740;7.606;2023-11-18T03:58:32;4.97;;;1.77;;
7501;SDS011;3792;47.740;7.606;2023-11-18T04:00:59;2.37;;;1.80;;
7501;SDS011;3792;47.740;7.606;2023-11-18T04:03:26;1.60;;;1.37;;
7501;SDS011;3792;47.740;7.606;2023-11-18T04:05:54;1.80;;;1.70;;
7501;SDS011;3792;47.740;7.606;2023-11-18T04:08:22;2.33;;;1.63;;
7501;SDS011;3792;47.740;7.606;2023-11-18T04:10:50;1.50;;;1.40;;
7501;SDS011;3792;47.740;7.606;2023-11-18T04:13:17;2.87;;;1.40;;
7501;SDS011;3792;47.740;7.606;2023-11-18T04:15:44;6.47;;;1.40;;
7501;SDS011;3792;47.740;7.606;2023-11-18T04:18:11;1.83;;;1.10;;
7501;SDS011;3792;47.740;7.606;2023-11-18T04:20:38;1.60;;;1.50;;
7501;SDS011;3792;47.740;7.606;2023-11-18T04:23:05;3.30;;;1.57;;
7501;SDS011;3792;47.740;7.606;2023-11-18T04:25:34;2.37;;;1.73;;
7501;SDS011;3792;47.740;7.606;2023-11-18T04:28:01;3.83;;;1.60;;
7501;SDS011;3792;47.740;7.606;2023-11-18T04:30:29;3.20;;;1.50;;
7501;SDS011;3792;47.740;7.606;2023-11-18T04:32:56;6.00;;;2.23;;
7501;SDS011;3792;47.740;7.606;2023-11-18T04:35:23;2.17;;;1.33;;
7501;SDS011;3792;47.740;7.606;2023-11-18T04:37:50;10.50;;;6.40;;
7501;SDS011;3792;47.740;7.606;2023-11-18T04:40:17;2.60;;;2.13;;
7501;SDS011;3792;47.740;7.606;2023-11-18T04:42:45;2.03;;;1.40;;
7501;SDS011;3792;47.740;7.606;2023-11-18T04:45:12;2.77;;;1.60;;
7501;SDS011;3792;47.740;7.606;2023-11-18T04:47:40;2.97;;;1.73;;
7501;SDS011;3792;47.740;7.606;2023-11-18T04:50:09;2.30;;;1.53;;
7501;SDS011;3792;47.740;7.606;2023-11-18T04:52:36;4.57;;;2.50;;
7501;SDS011;3792;47.740;7.606;2023-11-18T04:55:04;2.80;;;2.30;;
7501;SDS011;3792;47.740;7.606;2023-11-18T04:57:32;4.27;;;2.43;;
7501;SDS011;3792;47.740;7.606;2023-11-18T05:00:00;11.50;;;2.43;;
7501;SDS011;3792;47.740;7.606;2023-11-18T05:02:35;2.40;;;1.37;;
7501;SDS011;3792;47.740;7.606;2023-11-18T05:05:02;1.80;;;1.30;;
7501;SDS011;3792;47.740;7.606;2023-11-18T05:07:31;1.43;;;1.23;;
7501;SDS011;3792;47.740;7.606;2023-11-18T05:09:58;4.17;;;1.37;;
7501;SDS011;3792;47.740;7.606;2023-11-18T05:12:25;2.53;;;1.67;;
7501;SDS011;3792;47.740;7.606;2023-11-18T05:14:54;2.00;;;1.10;;
7501;SDS011;3792;47.740;7.606;2023-11-18T05:17:23;1.97;;;1.30;;
7501;SDS011;3792;47.740;7.606;2023-11-18T05:19:51;2.23;;;1.63;;
7501;SDS011;3792;47.740;7.606;2023-11-18T05:22:18;1.73;;;1.30;;
7501;SDS011;3792;47.740;7.606;2023-11-18T05:24:45;5.50;;;1.40;;
7501;SDS011;3792;47.740;7.606;2023-11-18T05:27:13;1.87;;;1.33;;
7501;SDS011;3792;47.740;7.606;2023-11-18T05:29:40;1.83;;;1.63;;
7501;SDS011;3792;47.740;7.606;2023-11-18T05:32:07;2.47;;;2.20;;
7501;SDS011;3792;47.740;7.606;2023-11-18T05:34:36;2.20;;;2.10;;
7501;SDS011;3792;47.740;7.606;2023-11-18T05:37:03;4.07;;;1.77;;
7501;SDS011;3792;47.740;7.606;2023-11-18T05:39:31;1.20;;;0.90;;
7501;SDS011;3792;47.740;7.606;2023-11-18T05:42:00;2.37;;;1.20;;
7501;SDS011;3792;47.740;7.606;2023-11-18T05:44:27;1.50;;;1.00;;
7501;SDS011;3792;47.740;7.606;2023-11-18T05:47:02;2.03;;;1.27;;
7501;SDS011;3792;47.740;7.606;2023-11-18T05:49:29;1.87;;;1.50;;
7501;SDS011;3792;47.740;7.606;2023-11-18T05:51:58;1.43;;;1.33;;
7501;SDS011;3792;47.740;7.606;2023-11-18T05:54:25;3.17;;;1.57;;
7501;SDS011;3792;47.740;7.606;2023-11-18T05:56:53;1.90;;;1.43;;
7501;SDS011;3792;47.740;7.606;2023-11-18T05:59:20;4.63;;;1.37;;
7501;SDS011;3792;47.740;7.606;2023-11-18T06:01:48;3.70;;;1.87;;
7501;SDS011;3792;47.740;7.606;2023-11-18T06:04:16;2.77;;;1.47;;
7501;SDS011;3792;47.740;7.606;2023-11-18T06:06:43;3.33;;;2.33;;
7501;SDS011;3792;47.740;7.606;2023-11-18T06:09:11;4.97;;;2.30;;
7501;SDS011;3792;47.740;7.606;2023-11-18T06:11:45;2.63;;;1.47;;
7501;SDS011;3792;47.740;7.606;2023-11-18T06:14:14;2.77;;;1.50;;
7501;SDS011;3792;47.740;7.606;2023-11-18T06:16:42;2.13;;;1.90;;
7501;SDS011;3792;47.740;7.606;2023-11-18T06:19:09;3.50;;;1.73;;
7501;SDS011;3792;47.740;7.606;2023-11-18T06:21:36;4.13;;;1.70;;
7501;SDS011;3792;47.740;7.606;2023-11-18T06:24:03;3.10;;;2.87;;
7501;SDS011;3792;47.740;7.606;2023-11-18T06:26:32;6.97;;;4.30;;
7501;SDS011;3792;47.740;7.606;2023-11-18T06:29:01;6.13;;;4.93;;
7501;SDS011;3792;47.740;7.606;2023-11-18T06:31:29;4.87;;;3.37;;
7501;SDS011;3792;47.740;7.606;2023-11-18T06:33:57;9.63;;;5.30;;
7501;SDS011;3792;47.740;7.606;2023-11-18T06:36:24;10.03;;;6.50;;
7501;SDS011;3792;47.740;7.606;2023-11-18T06:38:52;9.70;;;6.17;;
7501;SDS011;3792;47.740;7.606;2023-11-18T06:41:21;7.90;;;6.50;;
7501;SDS011;3792;47.740;7.606;2023-11-18T06:43:52;5.93;;;4.73;;
7501;SDS011;3792;47.740;7.606;2023-11-18T06:46:26;7.30;;;5.07;;
7501;SDS011;3792;47.740;7.606;2023-11-18T06:48:57;11.07;;;6.67;;
7501;SDS011;3792;47.740;7.606;2023-11-18T06:51:24;5.17;;;4.23;;
7501;SDS011;3792;47.740;7.606;2023-11-18T06:53:54;8.77;;;5.33;;
7501;SDS011;3792;47.740;7.606;2023-11-18T06:56:21;19.63;;;11.07;;
7501;SDS011;3792;47.740;7.606;2023-11-18T06:58:48;20.47;;;13.27;;
7501;SDS011;3792;47.740;7.606;2023-11-18T07:01:18;5.53;;;3.33;;
7501;SDS011;3792;47.740;7.606;2023-11-18T07:03:46;2.90;;;2.60;;
7501;SDS011;3792;47.740;7.606;2023-11-18T07:06:18;4.00;;;2.17;;
7501;SDS011;3792;47.740;7.606;2023-11-18T07:08:47;5.47;;;4.07;;
7501;SDS011;3792;47.740;7.606;2023-11-18T07:11:15;8.40;;;6.23;;
7501;SDS011;3792;47.740;7.606;2023-11-18T07:13:42;10.23;;;5.70;;
7501;SDS011;3792;47.740;7.606;2023-11-18T07:16:09;7.50;;;5.37;;
7501;SDS011;3792;47.740;7.606;2023-11-18T07:18:38;12.13;;;7.17;;
7501;SDS011;3792;47.740;7.606;2023-11-18T07:21:07;13.97;;;7.87;;
7501;SDS011;3792;47.740;7.606;2023-11-18T07:23:34;16.10;;;9.67;;
7501;SDS011;3792;47.740;7.606;2023-11-18T07:26:02;13.77;;;8.30;;
7501;SDS011;3792;47.740;7.606;2023-11-18T07:28:30;9.20;;;6.43;;
7501;SDS011;3792;47.740;7.606;2023-11-18T07:30:57;7.33;;;5.97;;
7501;SDS011;3792;47.740;7.606;2023-11-18T07:33:24;4.53;;;4.10;;
7501;SDS011;3792;47.740;7.606;2023-11-18T07:35:53;6.20;;;3.10;;
7501;SDS011;3792;47.740;7.606;2023-11-18T07:38:20;3.53;;;2.13;;
7501;SDS011;3792;47.740;7.606;2023-11-18T07:40:48;5.23;;;1.50;;
7501;SDS011;3792;47.740;7.606;2023-11-18T07:43:17;2.97;;;1.20;;
7501;SDS011;3792;47.740;7.606;2023-11-18T07:45:46;1.57;;;1.47;;
7501;SDS011;3792;47.740;7.606;2023-11-18T07:48:15;5.57;;;1.70;;
7501;SDS011;3792;47.740;7.606;2023-11-18T07:50:43;2.40;;;1.73;;
7501;SDS011;3792;47.740;7.606;2023-11-18T07:53:12;1.67;;;1.57;;
7501;SDS011;3792;47.740;7.606;2023-11-18T07:55:39;3.93;;;1.83;;
7501;SDS011;3792;47.740;7.606;2023-11-18T07:58:06;2.37;;;1.73;;
7501;SDS011;3792;47.740;7.606;2023-11-18T08:00:35;3.20;;;1.70;;
7501;SDS011;3792;47.740;7.606;2023-11-18T08:03:04;2.93;;;1.27;;
7501;SDS011;3792;47.740;7.606;2023-11-18T08:05:32;4.17;;;1.37;;
7501;SDS011;3792;47.740;7.606;2023-11-18T08:07:59;2.03;;;1.40;;
7501;SDS011;3792;47.740;7.606;2023-11-18T08:10:28;1.47;;;1.27;;
7501;SDS011;3792;47.740;7.606;2023-11-18T08:12:58;11.23;;;6.43;;
7501;SDS011;3792;47.740;7.606;2023-11-18T08:15:25;9.60;;;6.70;;
7501;SDS011;3792;47.740;7.606;2023-11-18T08:17:54;5.23;;;2.93;;
7501;SDS011;3792;47.740;7.606;2023-11-18T08:20:21;4.43;;;3.40;;
7501;SDS011;3792;47.740;7.606;2023-11-18T08:22:50;2.07;;;1.43;;
7501;SDS011;3792;47.740;7.606;2023-11-18T08:25:18;2.70;;;1.83;;
7501;SDS011;3792;47.740;7.606;2023-11-18T08:27:48;4.40;;;1.83;;
7501;SDS011;3792;47.740;7.606;2023-11-18T08:30:15;3.50;;;1.63;;
7501;SDS011;3792;47.740;7.606;2023-11-18T08:32:43;3.40;;;1.63;;
7501;SDS011;3792;47.740;7.606;2023-11-18T08:35:11;2.03;;;1.67;;
7501;SDS011;3792;47.740;7.606;2023-11-18T08:37:39;3.40;;;1.70;;
7501;SDS011;3792;47.740;7.606;2023-11-18T08:40:07;4.07;;;1.43;;
7501;SDS011;3792;47.740;7.606;2023-11-18T08:42:40;3.33;;;1.23;;
7501;SDS011;3792;47.740;7.606;2023-11-18T08:45:14;4.57;;;1.60;;
7501;SDS011;3792;47.740;7.606;2023-11-18T08:47:43;3.50;;;1.47;;
7501;SDS011;3792;47.740;7.606;2023-11-18T08:50:12;3.10;;;1.10;;
7501;SDS011;3792;47.740;7.606;2023-11-18T08:52:39;4.07;;;1.70;;
7501;SDS011;3792;47.740;7.606;2023-11-18T08:55:09;2.27;;;1.10;;
7501;SDS011;3792;47.740;7.606;2023-11-18T08:57:43;1.30;;;1.20;;
7501;SDS011;3792;47.740;7.606;2023-11-18T09:00:19;2.77;;;1.60;;
7501;SDS011;3792;47.740;7.606;2023-11-18T09:03:00;2.93;;;1.53;;
7501;SDS011;3792;47.740;7.606;2023-11-18T09:05:30;1.80;;;1.20;;
7501;SDS011;3792;47.740;7.606;2023-11-18T09:08:01;1.57;;;1.00;;
7501;SDS011;3792;47.740;7.606;2023-11-18T09:10:31;3.50;;;1.30;;
7501;SDS011;3792;47.740;7.606;2023-11-18T09:12:59;3.53;;;1.40;;
7501;SDS011;3792;47.740;7.606;2023-11-18T09:15:27;4.10;;;1.00;;
7501;SDS011;3792;47.740;7.606;2023-11-18T09:17:56;2.47;;;1.33;;
7501;SDS011;3792;47.740;7.606;2023-11-18T09:20:23;5.00;;;1.20;;
7501;SDS011;3792;47.740;7.606;2023-11-18T09:22:50;1.03;;;1.00;;
7501;SDS011;3792;47.740;7.606;2023-11-18T09:25:20;1.10;;;1.00;;
7501;SDS011;3792;47.740;7.606;2023-11-18T09:27:48;1.10;;;1.00;;
7501;SDS011;3792;47.740;7.606;2023-11-18T09:30:15;1.37;;;0.70;;
7501;SDS011;3792;47.740;7.606;2023-11-18T09:32:44;1.83;;;0.90;;
7501;SDS011;3792;47.740;7.606;2023-11-18T09:35:12;2.20;;;1.00;;
7501;SDS011;3792;47.740;7.606;2023-11-18T09:37:40;4.37;;;1.00;;
7501;SDS011;3792;47.740;7.606;2023-11-18T09:40:08;2.67;;;1.10;;
7501;SDS011;3792;47.740;7.606;2023-11-18T09:42:39;1.07;;;0.90;;
7501;SDS011;3792;47.740;7.606;2023-11-18T09:45:08;6.57;;;1.63;;
7501;SDS011;3792;47.740;7.606;2023-11-18T09:47:40;1.70;;;1.00;;
7501;SDS011;3792;47.740;7.606;2023-11-18T09:50:16;1.80;;;0.93;;
7501;SDS011;3792;47.740;7.606;2023-11-18T09:52:47;2.20;;;0.90;;
7501;SDS011;3792;47.740;7.606;2023-11-18T09:55:21;2.93;;;1.10;;
7501;SDS011;3792;47.740;7.606;2023-11-18T09:57:55;1.03;;;0.80;;
7501;SDS011;3792;47.740;7.606;2023-11-18T10:00:33;2.67;;;1.10;;
7501;SDS011;3792;47.740;7.606;2023-11-18T10:03:06;1.90;;;0.93;;
7501;SDS011;3792;47.740;7.606;2023-11-18T10:05:39;3.67;;;0.90;;
7501;SDS011;3792;47.740;7.606;2023-11-18T10:08:07;2.13;;;0.77;;
7501;SDS011;3792;47.740;7.606;2023-11-18T10:10:34;2.07;;;0.87;;
7501;SDS011;3792;47.740;7.606;2023-11-18T10:13:02;2.30;;;0.93;;
7501;SDS011;3792;47.740;7.606;2023-11-18T10:15:33;2.10;;;1.00;;
7501;SDS011;3792;47.740;7.606;2023-11-18T10:18:02;1.50;;;0.83;;
7501;SDS011;3792;47.740;7.606;2023-11-18T10:20:46;2.60;;;0.80;;
7501;SDS011;3792;47.740;7.606;2023-11-18T10:23:17;2.90;;;1.03;;
7501;SDS011;3792;47.740;7.606;2023-11-18T10:25:46;1.63;;;0.80;;
7501;SDS011;3792;47.740;7.606;2023-11-18T10:28:21;2.83;;;0.90;;
7501;SDS011;3792;47.740;7.606;2023-11-18T10:30:49;1.87;;;0.80;;
7501;SDS011;3792;47.740;7.606;2023-11-18T10:33:17;1.10;;;0.90;;
7501;SDS011;3792;47.740;7.606;2023-11-18T10:35:52;2.13;;;1.13;;
7501;SDS011;3792;47.740;7.606;2023-11-18T10:38:22;1.07;;;0.80;;
7501;SDS011;3792;47.740;7.606;2023-11-18T10:40:54;1.73;;;0.87;;
7501;SDS011;3792;47.740;7.606;2023-11-18T10:43:22;2.37;;;1.20;;
7501;SDS011;3792;47.740;7.606;2023-11-18T10:45:51;2.07;;;1.00;;
7501;SDS011;3792;47.740;7.606;2023-11-18T10:48:23;1.50;;;0.87;;
7501;SDS011;3792;47.740;7.606;2023-11-18T10:50:51;1.37;;;0.90;;
7501;SDS011;3792;47.740;7.606;2023-11-18T10:53:19;1.70;;;0.90;;
7501;SDS011;3792;47.740;7.606;2023-11-18T10:55:46;3.50;;;1.00;;
7501;SDS011;3792;47.740;7.606;2023-11-18T10:58:15;1.60;;;1.00;;
7501;SDS011;3792;47.740;7.606;2023-11-18T11:00:46;1.43;;;1.20;;
7501;SDS011;3792;47.740;7.606;2023-11-18T11:03:14;1.00;;;0.90;;
7501;SDS011;3792;47.740;7.606;2023-11-18T11:05:43;1.33;;;0.87;;
7501;SDS011;3792;47.740;7.606;2023-11-18T11:08:13;2.87;;;1.00;;
7501;SDS011;3792;47.740;7.606;2023-11-18T11:10:41;2.47;;;1.00;;
7501;SDS011;3792;47.740;7.606;2023-11-18T11:13:08;4.00;;;0.83;;
7501;SDS011;3792;47.740;7.606;2023-11-18T11:15:40;0.80;;;0.80;;
7501;SDS011;3792;47.740;7.606;2023-11-18T11:18:11;2.70;;;0.93;;
7501;SDS011;3792;47.740;7.606;2023-11-18T11:20:47;1.50;;;1.00;;
7501;SDS011;3792;47.740;7.606;2023-11-18T11:23:34;3.20;;;0.90;;
7501;SDS011;3792;47.740;7.606;2023-11-18T11:26:22;2.07;;;0.80;;
7501;SDS011;3792;47.740;7.606;2023-11-18T11:29:04;1.47;;;0.90;;
7501;SDS011;3792;47.740;7.606;2023-11-18T11:31:40;1.60;;;0.90;;
7501;SDS011;3792;47.740;7.606;2023-11-18T11:34:10;0.80;;;0.80;;
7501;SDS011;3792;47.740;7.606;2023-11-18T11:36:46;1.03;;;0.80;;
7501;SDS011;3792;47.740;7.606;2023-11-18T11:39:17;1.53;;;0.80;;
7501;SDS011;3792;47.740;7.606;2023-11-18T11:41:51;0.87;;;0.87;;
7501;SDS011;3792;47.740;7.606;2023-11-18T11:44:20;1.27;;;1.17;;
7501;SDS011;3792;47.740;7.606;2023-11-18T11:46:54;1.23;;;0.80;;
7501;SDS011;3792;47.740;7.606;2023-11-18T11:49:25;2.53;;;1.30;;
7501;SDS011;3792;47.740;7.606;2023-11-18T11:52:02;1.93;;;0.90;;
7501;SDS011;3792;47.740;7.606;2023-11-18T11:54:37;0.87;;;0.87;;
7501;SDS011;3792;47.740;7.606;2023-11-18T11:57:10;2.67;;;1.10;;
7501;SDS011;3792;47.740;7.606;2023-11-18T11:59:55;1.43;;;0.90;;
7501;SDS011;3792;47.740;7.606;2023-11-18T12:02:22;3.37;;;1.00;;
7501;SDS011;3792;47.740;7.606;2023-11-18T12:04:55;1.87;;;0.90;;
7501;SDS011;3792;47.740;7.606;2023-11-18T12:07:24;1.10;;;1.00;;
7501;SDS011;3792;47.740;7.606;2023-11-18T12:09:56;1.43;;;0.67;;
7501;SDS011;3792;47.740;7.606;2023-11-18T12:12:25;2.10;;;0.90;;
7501;SDS011;3792;47.740;7.606;2023-11-18T12:14:53;1.43;;;0.93;;
7501;SDS011;3792;47.740;7.606;2023-11-18T12:17:23;0.77;;;0.77;;
7501;SDS011;3792;47.740;7.606;2023-11-18T12:19:57;1.40;;;1.00;;
7501;SDS011;3792;47.740;7.606;2023-11-18T12:22:25;3.03;;;0.83;;
7501;SDS011;3792;47.740;7.606;2023-11-18T12:28:00;1.90;;;1.20;;
7501;SDS011;3792;47.740;7.606;2023-11-18T12:30:44;1.43;;;1.00;;
7501;SDS011;3792;47.740;7.606;2023-11-18T12:36:40;2.77;;;1.13;;
7501;SDS011;3792;47.740;7.606;2023-11-18T12:39:44;3.00;;;1.23;;
7501;SDS011;3792;47.740;7.606;2023-11-18T12:42:50;1.20;;;1.10;;
7501;SDS011;3792;47.740;7.606;2023-11-18T12:48:49;4.13;;;2.47;;
7501;SDS011;3792;47.740;7.606;2023-11-18T12:51:17;2.10;;;1.40;;
7501;SDS011;3792;47.740;7.606;2023-11-18T12:53:48;3.60;;;1.40;;
7501;SDS011;3792;47.740;7.606;2023-11-18T12:56:16;2.80;;;1.40;;
7501;SDS011;3792;47.740;7.606;2023-11-18T12:58:46;2.50;;;1.07;;
7501;SDS011;3792;47.740;7.606;2023-11-18T13:01:13;3.67;;;1.80;;
7501;SDS011;3792;47.740;7.606;2023-11-18T13:03:41;3.83;;;2.00;;
7501;SDS011;3792;47.740;7.606;2023-11-18T13:06:09;1.73;;;1.30;;
7501;SDS011;3792;47.740;7.606;2023-11-18T13:08:37;2.67;;;1.40;;
7501;SDS011;3792;47.740;7.606;2023-11-18T13:11:04;1.60;;;1.50;;
7501;SDS011;3792;47.740;7.606;2023-11-18T13:13:37;1.30;;;1.20;;
7501;SDS011;3792;47.740;7.606;2023-11-18T13:16:07;2.73;;;1.50;;
7501;SDS011;3792;47.740;7.606;2023-11-18T13:18:41;1.67;;;1.57;;
7501;SDS011;3792;47.740;7.606;2023-11-18T13:21:13;2.10;;;1.43;;
7501;SDS011;3792;47.740;7.606;2023-11-18T13:23:40;2.77;;;1.50;;
7501;SDS011;3792;47.740;7.606;2023-11-18T13:26:09;2.07;;;1.50;;
7501;SDS011;3792;47.740;7.606;2023-11-18T13:28:37;1.97;;;1.70;;
7501;SDS011;3792;47.740;7.606;2023-11-18T13:31:06;3.03;;;1.50;;
7501;SDS011;3792;47.740;7.606;2023-11-18T13:33:36;2.10;;;1.53;;
7501;SDS011;3792;47.740;7.606;2023-11-18T13:36:04;2.47;;;1.60;;
7501;SDS011;3792;47.740;7.606;2023-11-18T13:38:35;1.93;;;1.60;;
7501;SDS011;3792;47.740;7.606;2023-11-18T13:41:09;1.87;;;1.77;;
7501;SDS011;3792;47.740;7.606;2023-11-18T13:43:42;2.80;;;1.70;;
7501;SDS011;3792;47.740;7.606;2023-11-18T13:46:13;1.60;;;1.50;;
7501;SDS011;3792;47.740;7.606;2023-11-18T13:48:41;1.83;;;1.43;;
7501;SDS011;3792;47.740;7.606;2023-11-18T13:51:09;2.90;;;1.60;;
7501;SDS011;3792;47.740;7.606;2023-11-18T13:53:39;2.70;;;1.60;;
7501;SDS011;3792;47.740;7.606;2023-11-18T13:56:08;2.07;;;1.87;;
7501;SDS011;3792;47.740;7.606;2023-11-18T13:58:36;3.53;;;1.97;;
7501;SDS011;3792;47.740;7.606;2023-11-18T14:01:04;3.40;;;2.20;;
7501;SDS011;3792;47.740;7.606;2023-11-18T14:03:34;1.77;;;1.67;;
7501;SDS011;3792;47.740;7.606;2023-11-18T14:06:04;2.57;;;1.93;;
7501;SDS011;3792;47.740;7.606;2023-11-18T14:08:35;5.20;;;1.80;;
7501;SDS011;3792;47.740;7.606;2023-11-18T14:11:02;2.77;;;1.80;;
7501;SDS011;3792;47.740;7.606;2023-11-18T14:13:30;2.10;;;1.90;;
7501;SDS011;3792;47.740;7.606;2023-11-18T14:16:00;4.57;;;1.90;;
7501;SDS011;3792;47.740;7.606;2023-11-18T14:18:27;2.40;;;1.90;;
7501;SDS011;3792;47.740;7.606;2023-11-18T14:20:55;2.83;;;1.73;;
7501;SDS011;3792;47.740;7.606;2023-11-18T14:23:23;1.87;;;1.77;;
7501;SDS011;3792;47.740;7.606;2023-11-18T14:25:50;3.13;;;1.80;;
7501;SDS011;3792;47.740;7.606;2023-11-18T14:28:17;2.00;;;1.57;;
7501;SDS011;3792;47.740;7.606;2023-11-18T14:30:50;2.63;;;1.73;;
7501;SDS011;3792;47.740;7.606;2023-11-18T14:33:17;6.20;;;2.10;;
7501;SDS011;3792;47.740;7.606;2023-11-18T14:35:45;3.77;;;2.30;;
7501;SDS011;3792;47.740;7.606;2023-11-18T14:38:14;2.03;;;1.70;;
7501;SDS011;3792;47.740;7.606;2023-11-18T14:40:45;3.30;;;1.90;;
7501;SDS011;3792;47.740;7.606;2023-11-18T14:43:13;2.23;;;2.03;;
7501;SDS011;3792;47.740;7.606;2023-11-18T14:45:40;2.87;;;1.80;;
7501;SDS011;3792;47.740;7.606;2023-11-18T14:48:08;2.23;;;2.10;;
7501;SDS011;3792;47.740;7.606;2023-11-18T14:50:35;2.80;;;2.33;;
7501;SDS011;3792;47.740;7.606;2023-11-18T14:53:03;4.17;;;2.30;;
7501;SDS011;3792;47.740;7.606;2023-11-18T14:55:32;3.30;;;1.97;;
7501;SDS011;3792;47.740;7.606;2023-11-18T14:57:59;2.20;;;2.00;;
7501;SDS011;3792;47.740;7.606;2023-11-18T15:00:29;3.30;;;2.00;;
7501;SDS011;3792;47.740;7.606;2023-11-18T15:02:57;2.33;;;2.10;;
7501;SDS011;3792;47.740;7.606;2023-11-18T15:05:26;3.10;;;2.33;;
7501;SDS011;3792;47.740;7.606;2023-11-18T15:07:56;2.60;;;2.40;;
7501;SDS011;3792;47.740;7.606;2023-11-18T15:10:26;2.63;;;2.10;;
7501;SDS011;3792;47.740;7.606;2023-11-18T15:12:56;3.47;;;2.00;;
7501;SDS011;3792;47.740;7.606;2023-11-18T15:15:26;3.27;;;2.07;;
7501;SDS011;3792;47.740;7.606;2023-11-18T15:17:57;1.80;;;1.70;;
7501;SDS011;3792;47.740;7.606;2023-11-18T15:20:25;2.77;;;2.03;;
7501;SDS011;3792;47.740;7.606;2023-11-18T15:22:52;3.27;;;1.93;;
7501;SDS011;3792;47.740;7.606;2023-11-18T15:25:19;2.73;;;1.83;;
7501;SDS011;3792;47.740;7.606;2023-11-18T15:27:46;2.17;;;1.73;;
7501;SDS011;3792;47.740;7.606;2023-11-18T15:30:16;2.47;;;1.80;;
7501;SDS011;3792;47.740;7.606;2023-11-18T15:32:43;2.50;;;1.73;;
7501;SDS011;3792;47.740;7.606;2023-11-18T15:35:12;1.73;;;1.63;;
7501;SDS011;3792;47.740;7.606;2023-11-18T15:37:42;1.77;;;1.50;;